Aeroporto :
LOGIN :

Iscrizione | Disclaimer

   EN    FR    IT 

 










Sommario :    VFR   VFR Marginale   IFR   IFR Intensivo   IFR Molto Intensivo
Visibilità : 
Base nubi : 
>= 8 km
>= 3000ft
5 / 8 km
1000 / 3000 ft
1500m / 5 km
500 / 1000 ft
800 / 1500m
200 / 500 ft
< 800m
< 200 ft
Simboli :   Temporali  Nebbia  Neve Forte  Precipitazioni Forti  Vento > 20 kt
SIGMETs :   Varie  Temporali  Ghiacco  Turbolenza  Onda orograficha  Ceneri Vulcaniche







- Altitudine del aeroporto : 81 ft
- Codice IATA : SCS
- Carte del aeroporto


EGPM - Scatsta

ULTIMO METAR :
  • 250150Z AUTO 33018KT 9999 OVC019/// 06/03 Q1019

METARs OBSOLETI :
  • 250120Z AUTO 32019KT 9999 OVC021/// 06/02 Q1018
  • 250050Z AUTO 33020KT 9999 BKN023/// 06/02 Q1018
  • 250020Z AUTO 33019KT 9999 BKN028/// 06/02 Q1017
  • 242350Z AUTO 33018KT 9999 NCD 05/01 Q1016
  • 242320Z AUTO 33017KT 9999 SCT031/// 06/01 Q1016

Previsioni scadute.
Nessun NOTAM noto per questo aeroporto.
2 SIGMETs conosciuti per la FIR Scottish (EGPX) :
 
Turbolenza severa
EGPX SIGMET 03 VALID 242200/250200 EGRR
EGPX SCOTTISH FIR SEV TURB FCST WI N5639 E00259 - N5640 W00326 - N5908 W00404 - N5838 W00113 - N5639 E00259 SFC/FL060 MOV SE 25KT NC=
Turbolenza severa
EGPX SIGMET 01 VALID 250200/250600 EGRR
EGPX SCOTTISH FIR SEV TURB FCST WI N5700 E00500 - N5500 E00500 - N5500 W00040 - N5555 W00138 - N5740 E00353 - N5700 E00500 SFC/FL060 MOV SE 30KT NC=



MetMap, La meteo Aeronautica in un colpo d'occhio ! - Copyright ORBIFLY Dicembre 2007 - Disclaimer

ORBIFLY MET'MAP TEAM :

Programmazione e sviluppo : Alexandra Zaïnal
Concezione e sviluppo : Baudouin d'Aumeries
Co-Programmazione e sviluppo : Marc-Olivier Méhu
Supporto tecnico e logistico : Manuel Goepfert
Aiuto per la traduzione : Arnaldo La Scala

Contatto : metmap@orbifly.com




FONTI E CREDITI :

   NOAA